Pagina principală
METAR-TAF:

METAR-TAF

Aeroporturi :

Futuna, Franța

Latitudine: 14-19S, longitudine: 178-07W, elevație: 6 m

METAR: lipsă

Ora: 21:53 (09:53 UTC)

Prognoză

Raportul a fost făcut în urmă cu 4 ore și 53 de minute, la 05:00 UTC
Prognoză valabilă de la 26 ora 06 UTC la 27 ora 06 UTC
Vânt 10 kt de la Est/Sud-est
Vizibilitate de 10 km sau mai mult
Nori puțini la o înălțime de 1800 picior
Nori împrăștiați la o înălțime de 2500 picior
Temporar
de la 26 ora 06 UTC la 26 ora 12 UTC
Vizibilitate: 4000 m
Nori fragmentați la o înălțime de 1300 picior
Nori împrăștiați la o înălțime de 2000 picior, Cumulus congestus.
averse de ploaie
Temporar
de la 26 ora 12 UTC la 27 ora 06 UTC
Nori puțini la o înălțime de 2500 picior, Cumulus congestus.
averse de ploaie

TAF: NLWF 260500Z 2606/2706 11010KT 9999 FEW018 SCT025 TEMPO 2606/2612 4000 SHRA BKN013 SCT020TCU TEMPO 2612/2706 SHRA FEW025TCU

Observații și prognoze meteo pentru peste 4.000 de aeroporturi (rapoarte METAR și TAF).

Stațiile disponibile sunt reprezentate pe hartă prin puncte galbene și roșii.

Țineți indicatorul mouse-ului pe punctul dorit pentru a vedea denumirea stației.

Apoi, faceți clic pentru a vedea observațiile și prognozele meteorologice.

Pentru a schimba harta: Pentru mărire, faceți clic pe butoanele verzi cu cruce neagră; pentru micșorare, pe butonul verde cu o liniuță; pentru hărți învecinate, pe săgețile verzi.


METAR-TAF: